Time;durP1;ratioP1;P1;durP2;ratioP2;P2;SDS_P1;SDS_P2;PMS_P1;PMS_P2;Temp;Humidity;BMP_temperature;BMP_pressure;BME280_temperature;BME280_humidity;BME280_pressure;Samples;Min_cycle;Max_cycle;Signal;HPM_P1;HPM_P2
2022/07/10 00:00:31;;;;;;;7.95;4.43;;;;;;;17.21;88.57;95999.91;5041200;28;20038;-77
2022/07/10 00:03:05;;;;;;;8.98;4.50;;;;;;;17.18;92.21;95995.19;5049983;28;20087;-77
2022/07/10 00:05:31;;;;;;;7.13;4.22;;;;;;;17.11;89.91;96012.38;5032703;28;20052;-77
2022/07/10 00:07:57;;;;;;;6.90;4.55;;;;;;;17.08;90.49;96020.13;5049258;28;20537;-77
2022/07/10 00:10:23;;;;;;;6.93;3.92;;;;;;;17.08;89.04;96020.13;5046213;28;20037;-76
2022/07/10 00:12:50;;;;;;;7.40;4.20;;;;;;;17.06;88.91;96015.13;5031449;28;20095;-77
2022/07/10 00:15:16;;;;;;;9.23;3.92;;;;;;;17.00;89.83;96016.31;5024934;28;20037;-77
2022/07/10 00:17:43;;;;;;;6.57;4.07;;;;;;;17.03;90.38;96015.72;5046775;28;20037;-77
2022/07/10 00:20:10;;;;;;;7.60;4.10;;;;;;;17.01;89.90;96012.59;5041618;28;20041;-76
2022/07/10 00:22:37;;;;;;;5.80;4.22;;;;;;;17.07;89.44;96016.69;5050192;28;20052;-77
2022/07/10 00:25:09;;;;;;;8.65;4.80;;;;;;;17.08;88.08;96018.28;5050645;28;20052;-77
2022/07/10 00:27:34;;;;;;;10.57;5.22;;;;;;;17.04;90.80;96021.81;5028253;28;20056;-76
2022/07/10 00:30:01;;;;;;;8.57;5.20;;;;;;;17.08;88.20;96034.25;5032886;28;20511;-77
2022/07/10 00:32:26;;;;;;;9.15;5.30;;;;;;;17.06;88.49;96028.41;5032373;28;20049;-77
2022/07/10 00:34:52;;;;;;;8.10;4.53;;;;;;;17.07;88.35;96043.28;5050234;28;20041;-77
2022/07/10 00:37:18;;;;;;;7.13;4.30;;;;;;;17.06;89.90;96033.72;5048236;28;20454;-77
2022/07/10 00:39:43;;;;;;;6.75;4.55;;;;;;;17.00;90.03;96037.59;5031051;28;20048;-76
2022/07/10 00:42:13;;;;;;;7.20;4.60;;;;;;;16.74;94.21;96035.41;5031546;28;20091;-77
2022/07/10 00:44:39;;;;;;;6.97;4.72;;;;;;;16.70;96.18;96045.03;5050830;28;20096;-76
2022/07/10 00:47:05;;;;;;;8.20;4.93;;;;;;;16.47;99.45;96046.03;5031101;28;20044;-77
2022/07/10 00:49:32;;;;;;;7.95;5.05;;;;;;;16.24;100.00;96053.84;5043369;28;20529;-77
2022/07/10 00:52:00;;;;;;;8.80;5.95;;;;;;;16.32;100.00;96061.16;5031656;28;20045;-77
2022/07/10 00:54:26;;;;;;;14.20;6.25;;;;;;;16.23;100.00;96058.38;5033562;28;20044;-76
2022/07/10 00:56:52;;;;;;;8.95;5.53;;;;;;;15.97;100.00;96042.06;5052453;28;20045;-77
2022/07/10 00:59:18;;;;;;;7.85;5.60;;;;;;;15.99;100.00;96036.47;5034629;28;20041;-77
2022/07/10 01:01:44;;;;;;;8.07;5.55;;;;;;;16.00;100.00;96033.53;5053749;28;20040;-77
2022/07/10 01:04:10;;;;;;;6.82;5.38;;;;;;;15.92;100.00;96031.56;5036161;28;20041;-77
2022/07/10 01:06:36;;;;;;;9.35;5.20;;;;;;;15.85;100.00;96041.75;5052603;28;20041;-77
2022/07/10 01:09:02;;;;;;;9.30;5.35;;;;;;;15.76;100.00;96044.25;5050743;28;20064;-77
2022/07/10 01:11:29;;;;;;;8.75;6.13;;;;;;;15.79;100.00;96042.91;5048060;28;20048;-77
2022/07/10 01:13:54;;;;;;;7.93;5.60;;;;;;;15.59;100.00;96044.78;5054214;28;20103;-77
2022/07/10 01:16:22;;;;;;;9.18;5.60;;;;;;;15.62;100.00;96033.56;5054346;28;20420;-77
2022/07/10 01:18:47;;;;;;;9.07;6.00;;;;;;;15.60;100.00;96030.41;5052765;28;20049;-76
2022/07/10 01:21:26;;;;;;;8.75;5.80;;;;;;;15.52;100.00;96033.72;5054013;28;20179;-77
2022/07/10 01:23:52;;;;;;;7.70;6.00;;;;;;;15.45;100.00;96033.31;5056417;28;20049;-77
2022/07/10 01:26:17;;;;;;;11.52;7.00;;;;;;;15.36;100.00;96019.91;5052499;28;20068;-77
2022/07/10 01:28:43;;;;;;;8.13;5.63;;;;;;;15.40;100.00;96026.19;5024447;28;20499;-77
2022/07/10 01:31:09;;;;;;;9.38;5.85;;;;;;;15.50;100.00;96030.56;5050931;28;20041;-77
2022/07/10 01:33:34;;;;;;;10.15;5.90;;;;;;;15.37;100.00;96022.28;5052642;28;20115;-77
2022/07/10 01:35:59;;;;;;;8.57;5.47;;;;;;;15.34;100.00;96017.53;5044353;28;20049;-77
2022/07/10 01:38:25;;;;;;;10.00;5.50;;;;;;;15.33;100.00;96015.97;5050225;28;20552;-77
2022/07/10 01:40:50;;;;;;;7.60;5.32;;;;;;;15.36;100.00;96010.06;5049059;28;20064;-77
2022/07/10 01:43:16;;;;;;;8.05;5.57;;;;;;;15.38;100.00;96013.22;5053370;28;20044;-77
2022/07/10 01:45:43;;;;;;;7.65;5.68;;;;;;;15.33;100.00;96015.97;5052855;28;20071;-77
2022/07/10 01:48:08;;;;;;;8.48;5.70;;;;;;;15.31;100.00;96023.41;5046700;28;20037;-77
2022/07/10 01:50:34;;;;;;;10.50;6.07;;;;;;;15.25;100.00;96014.72;5034049;28;20091;-77
2022/07/10 01:53:00;;;;;;;9.18;6.57;;;;;;;15.12;100.00;96012.00;5053551;28;20045;-77
2022/07/10 01:55:25;;;;;;;8.50;5.55;;;;;;;15.04;100.00;96014.22;5054012;28;20036;-77
2022/07/10 01:57:51;;;;;;;8.32;6.55;;;;;;;14.98;100.00;96004.75;5053602;28;20064;-77
2022/07/10 02:00:17;;;;;;;9.77;6.55;;;;;;;15.05;100.00;95994.59;5034095;28;20037;-77
2022/07/10 02:04:40;;;;;;;8.93;6.47;;;;;;;15.06;100.00;95996.16;5053426;28;20049;-77
2022/07/10 02:05:28;;;;;;;9.60;6.80;;;;;;;15.13;100.00;95992.38;5053269;28;20071;-77
2022/07/10 02:07:53;;;;;;;11.80;7.03;;;;;;;14.95;100.00;95992.06;5052906;28;20037;-77
2022/07/10 02:10:19;;;;;;;8.50;6.55;;;;;;;14.94;100.00;95985.22;5032317;28;20034;-77
2022/07/10 02:12:44;;;;;;;8.90;7.03;;;;;;;14.91;100.00;95988.41;5035982;28;20037;-77
2022/07/10 02:15:10;;;;;;;8.63;6.53;;;;;;;14.96;100.00;95985.72;5047256;28;20047;-77
2022/07/10 02:17:35;;;;;;;9.82;7.30;;;;;;;15.00;100.00;95992.00;5054453;28;20041;-77
2022/07/10 02:20:01;;;;;;;10.25;7.55;;;;;;;14.84;100.00;95990.63;5035316;28;20068;-77
2022/07/10 02:22:26;;;;;;;14.70;7.47;;;;;;;14.87;100.00;95982.13;5055111;28;20077;-77
2022/07/10 02:24:53;;;;;;;11.23;7.15;;;;;;;14.88;100.00;95991.63;5038056;28;20036;-77
2022/07/10 02:27:18;;;;;;;10.48;7.35;;;;;;;14.83;100.00;95986.41;5055643;28;20581;-77
2022/07/10 02:29:43;;;;;;;16.35;7.95;;;;;;;14.77;100.00;95982.22;5054902;28;20040;-77
2022/07/10 02:32:09;;;;;;;12.38;8.73;;;;;;;14.73;100.00;95980.16;5055884;28;20044;-77
2022/07/10 02:34:35;;;;;;;13.50;8.13;;;;;;;14.76;100.00;95975.38;5035245;28;20507;-77
2022/07/10 02:37:00;;;;;;;18.17;8.90;;;;;;;14.73;100.00;95979.38;5054280;28;20044;-77
2022/07/10 02:39:25;;;;;;;12.88;8.20;;;;;;;14.73;100.00;95977.50;5054314;28;20037;-77
2022/07/10 02:41:51;;;;;;;12.75;8.63;;;;;;;14.81;100.00;95980.59;5042531;28;20045;-77
2022/07/10 02:44:16;;;;;;;12.52;8.48;;;;;;;14.81;100.00;95983.25;5054217;28;20092;-77
2022/07/10 02:46:42;;;;;;;13.48;8.32;;;;;;;14.73;100.00;95976.72;5052122;28;20044;-76
2022/07/10 02:49:08;;;;;;;16.42;9.13;;;;;;;14.68;100.00;95985.53;5028592;28;20392;-76
2022/07/10 02:51:33;;;;;;;15.50;8.63;;;;;;;14.80;100.00;95993.06;5049105;28;20049;-77
2022/07/10 02:53:59;;;;;;;14.38;8.85;;;;;;;14.73;100.00;95987.31;5054040;28;20033;-77
2022/07/10 02:56:24;;;;;;;13.43;8.13;;;;;;;14.73;100.00;95993.41;5033478;28;20063;-76
2022/07/10 02:58:49;;;;;;;13.82;8.88;;;;;;;14.73;100.00;95980.16;5035707;28;20068;-77
2022/07/10 03:01:15;;;;;;;11.20;8.40;;;;;;;14.73;100.00;95982.81;5053189;28;20040;-77
2022/07/10 03:03:41;;;;;;;11.93;8.57;;;;;;;14.66;100.00;95981.59;5033768;28;20076;-77
2022/07/10 03:06:06;;;;;;;15.18;8.43;;;;;;;14.55;100.00;95988.81;5034488;28;20041;-77
2022/07/10 03:08:31;;;;;;;10.93;7.80;;;;;;;14.68;100.00;95990.84;5052215;28;20056;-76
2022/07/10 03:10:57;;;;;;;11.98;8.20;;;;;;;14.71;100.00;95990.25;5052828;28;20075;-77
2022/07/10 03:13:22;;;;;;;10.68;7.82;;;;;;;14.70;100.00;95988.69;5036681;28;20041;-77
2022/07/10 03:15:48;;;;;;;12.15;8.35;;;;;;;14.63;100.00;95982.94;5034321;28;20045;-77
2022/07/10 03:18:13;;;;;;;13.05;8.23;;;;;;;14.61;100.00;95985.06;5052534;28;20052;-76
2022/07/10 03:20:39;;;;;;;13.23;7.97;;;;;;;14.60;100.00;95983.47;5034604;28;20036;-77
2022/07/10 03:23:04;;;;;;;10.65;7.70;;;;;;;14.53;100.00;95977.72;5035875;28;20045;-76
2022/07/10 03:25:30;;;;;;;12.13;8.70;;;;;;;14.46;100.00;95986.00;5052341;28;20213;-76
2022/07/10 03:27:55;;;;;;;12.60;8.07;;;;;;;14.31;100.00;95986.97;5053061;28;20040;-77
2022/07/10 03:30:21;;;;;;;10.88;7.85;;;;;;;14.31;100.00;95981.69;5048061;28;20796;-77
2022/07/10 03:32:46;;;;;;;11.98;8.25;;;;;;;14.24;100.00;95986.53;5033655;28;20048;-76
2022/07/10 03:35:12;;;;;;;13.50;8.60;;;;;;;14.16;100.00;95989.78;5050726;28;20397;-76
2022/07/10 03:37:37;;;;;;;11.32;7.95;;;;;;;14.09;100.00;95989.31;5073351;28;20077;-75
2022/07/10 03:40:03;;;;;;;12.65;8.82;;;;;;;14.02;100.00;95982.50;5071100;28;20029;-75
2022/07/10 03:42:29;;;;;;;13.60;8.85;;;;;;;13.99;100.00;95985.72;5057752;28;20049;-76
2022/07/10 03:44:54;;;;;;;14.73;9.18;;;;;;;14.00;100.00;95997.84;5056761;28;20051;-74
2022/07/10 03:47:19;;;;;;;14.50;8.70;;;;;;;13.99;100.00;95991.00;5074568;28;20032;-74
2022/07/10 03:49:46;;;;;;;13.80;9.45;;;;;;;14.05;100.00;95989.09;5073687;28;20064;-74
2022/07/10 03:52:11;;;;;;;15.75;8.75;;;;;;;14.10;100.00;95990.91;5058537;28;20048;-74
2022/07/10 03:54:37;;;;;;;13.65;8.88;;;;;;;14.13;100.00;95990.34;5057647;28;20033;-74
2022/07/10 03:59:47;;;;;;;;;;;;;;;14.17;100.00;95992.13;5072384;28;20029;-75
2022/07/10 04:02:12;;;;;;;17.75;8.98;;;;;;;14.17;100.00;95986.06;5058512;28;19943;-74
2022/07/10 04:04:38;;;;;;;12.18;8.88;;;;;;;14.15;100.00;95988.19;5058203;28;20289;-76
2022/07/10 04:07:04;;;;;;;14.30;9.15;;;;;;;14.21;100.00;95987.88;5048456;28;20041;-74
2022/07/10 04:09:30;;;;;;;17.02;9.50;;;;;;;14.23;100.00;95989.44;5067442;28;20029;-74
2022/07/10 04:11:55;;;;;;;13.95;8.85;;;;;;;14.23;100.00;95979.63;5057668;28;20025;-75
2022/07/10 04:14:21;;;;;;;14.50;9.73;;;;;;;14.27;100.00;95980.66;5074982;28;20089;-74
2022/07/10 04:16:47;;;;;;;14.65;9.38;;;;;;;14.26;100.00;95984.38;5048662;28;20120;-77
2022/07/10 04:19:12;;;;;;;14.75;9.55;;;;;;;14.28;100.00;95992.03;5045879;28;20041;-77
2022/07/10 04:21:38;;;;;;;12.77;8.88;;;;;;;14.34;100.00;95985.63;5036006;28;20033;-77
2022/07/10 04:24:04;;;;;;;12.50;8.27;;;;;;;14.20;100.00;95980.97;5053964;28;20462;-77
2022/07/10 04:26:29;;;;;;;12.35;8.25;;;;;;;14.32;100.00;95972.69;5052710;28;20037;-76
2022/07/10 04:28:55;;;;;;;15.55;9.05;;;;;;;14.34;100.00;95986.41;5031415;28;20033;-77
2022/07/10 04:31:21;;;;;;;13.13;8.82;;;;;;;14.47;100.00;95973.56;5041273;28;20045;-77
2022/07/10 04:33:46;;;;;;;13.68;8.88;;;;;;;14.40;100.00;95979.19;5059456;28;20122;-77
2022/07/10 04:36:12;;;;;;;12.85;8.52;;;;;;;14.35;100.00;95976.59;5054688;28;20051;-77
2022/07/10 04:38:37;;;;;;;12.48;8.93;;;;;;;14.38;100.00;95976.84;5059510;28;20068;-77
2022/07/10 04:41:03;;;;;;;14.93;8.95;;;;;;;14.35;100.00;95977.41;5056700;28;20053;-78
2022/07/10 04:43:30;;;;;;;12.85;9.27;;;;;;;14.46;100.00;95982.59;5040412;28;20133;-77
2022/07/10 04:45:55;;;;;;;14.77;8.52;;;;;;;14.43;100.00;95977.84;5057562;28;20195;-77
2022/07/10 04:48:21;;;;;;;13.18;8.75;;;;;;;14.50;100.00;95973.00;5040663;28;20479;-77
2022/07/10 04:50:46;;;;;;;14.52;9.10;;;;;;;14.43;100.00;95972.56;5047774;28;20053;-77
2022/07/10 04:53:12;;;;;;;12.27;8.73;;;;;;;14.63;100.00;95980.28;5055075;28;20041;-77
2022/07/10 04:55:38;;;;;;;14.77;9.02;;;;;;;14.56;100.00;95985.09;5058203;28;20503;-77
2022/07/10 04:58:04;;;;;;;13.60;8.38;;;;;;;14.51;100.00;95974.56;5055734;28;20045;-77
2022/07/10 05:00:29;;;;;;;14.10;8.73;;;;;;;14.54;100.00;96000.50;5052726;28;20047;-77
2022/07/10 05:02:55;;;;;;;10.80;8.13;;;;;;;14.58;100.00;95985.59;5056643;28;20075;-77
2022/07/10 05:05:20;;;;;;;12.90;8.05;;;;;;;14.52;100.00;95992.03;5058196;28;20041;-77
2022/07/10 05:07:46;;;;;;;13.18;8.50;;;;;;;14.37;100.00;95990.34;5059374;28;20044;-78
2022/07/10 05:10:11;;;;;;;13.05;8.32;;;;;;;14.46;100.00;95991.31;5049897;28;20121;-77
2022/07/10 05:12:37;;;;;;;13.70;8.90;;;;;;;14.48;100.00;96001.59;5032600;28;20681;-76
2022/07/10 05:15:03;;;;;;;12.25;8.20;;;;;;;14.56;100.00;96003.66;5051669;28;20052;-76
2022/07/10 05:17:28;;;;;;;13.25;8.55;;;;;;;14.67;100.00;96002.50;5050016;28;20049;-76
2022/07/10 05:19:56;;;;;;;14.02;9.13;;;;;;;14.52;100.00;96005.28;5046953;28;20464;-78
2022/07/10 05:22:22;;;;;;;14.98;9.63;;;;;;;14.64;100.00;96013.66;5049871;28;20495;-77
2022/07/10 05:24:48;;;;;;;15.75;9.43;;;;;;;14.69;100.00;96002.97;5046381;28;20522;-77
2022/07/10 05:27:16;;;;;;;14.88;9.70;;;;;;;14.55;100.00;96002.06;5034244;28;20423;-76
2022/07/10 05:29:41;;;;;;;15.65;10.07;;;;;;;14.66;100.00;96000.91;5050060;28;20734;-77
2022/07/10 05:32:07;;;;;;;16.23;10.35;;;;;;;14.72;100.00;96002.44;5052702;28;20066;-76
2022/07/10 05:34:33;;;;;;;14.57;10.40;;;;;;;14.77;100.00;96004.22;5050599;28;20560;-76
2022/07/10 05:36:59;;;;;;;14.20;9.73;;;;;;;14.75;100.00;96010.88;5051269;28;20041;-76
2022/07/10 05:39:26;;;;;;;16.48;10.55;;;;;;;14.70;100.00;96004.56;5050712;28;20098;-75
2022/07/10 05:41:52;;;;;;;16.98;10.07;;;;;;;14.77;100.00;96019.31;5050750;28;20041;-77
2022/07/10 05:44:19;;;;;;;16.60;9.75;;;;;;;14.90;100.00;96008.06;5033614;28;20103;-76
2022/07/10 05:46:45;;;;;;;16.23;10.65;;;;;;;14.89;100.00;96017.06;5034699;28;20047;-77
2022/07/10 05:49:10;;;;;;;16.20;10.48;;;;;;;14.92;100.00;96011.19;5030257;28;20068;-78
2022/07/10 05:51:36;;;;;;;17.05;9.85;;;;;;;14.92;100.00;96011.19;5024080;28;20045;-76
2022/07/10 05:54:01;;;;;;;15.95;10.40;;;;;;;15.12;100.00;96019.97;5052071;28;20052;-77
2022/07/10 05:56:27;;;;;;;14.73;10.15;;;;;;;15.27;100.00;96005.69;5045918;28;20499;-77
2022/07/10 05:58:55;;;;;;;18.08;10.80;;;;;;;15.31;100.00;96012.78;5045827;28;20096;-76
2022/07/10 06:01:21;;;;;;;15.27;10.35;;;;;;;15.12;100.00;96004.84;5051398;28;20041;-76
2022/07/10 06:03:46;;;;;;;23.30;10.95;;;;;;;15.10;100.00;96014.16;5033568;28;20093;-76
2022/07/10 06:06:15;;;;;;;14.38;9.90;;;;;;;15.16;100.00;96005.06;5047779;28;20094;-76
2022/07/10 06:08:41;;;;;;;15.90;10.70;;;;;;;15.26;100.00;96007.56;5033940;28;20056;-79
2022/07/10 06:11:06;;;;;;;16.55;10.40;;;;;;;15.31;100.00;96007.50;5037539;28;20110;-76
2022/07/10 06:13:32;;;;;;;13.77;9.95;;;;;;;15.36;100.00;96010.06;5051603;28;20037;-77
2022/07/10 06:15:57;;;;;;;16.08;10.65;;;;;;;15.35;100.00;95997.88;5052169;28;20041;-76
2022/07/10 06:18:23;;;;;;;15.57;10.10;;;;;;;15.33;100.00;96007.19;5048317;28;20041;-77
2022/07/10 06:20:48;;;;;;;16.20;10.95;;;;;;;15.23;100.00;96010.81;5051404;28;20466;-76
2022/07/10 06:23:13;;;;;;;18.52;10.70;;;;;;;15.07;100.00;96013.66;5052868;28;20045;-77
2022/07/10 06:25:39;;;;;;;15.98;10.05;;;;;;;15.26;100.00;96015.53;5053098;28;20116;-76
2022/07/10 06:28:04;;;;;;;14.60;10.07;;;;;;;15.31;100.00;96023.41;5052093;28;20037;-77
2022/07/10 06:30:30;;;;;;;16.70;10.55;;;;;;;15.29;100.00;96025.56;5035923;28;20041;-77
2022/07/10 06:32:55;;;;;;;15.63;10.93;;;;;;;15.23;100.00;96022.19;5054581;28;20447;-77
2022/07/10 06:35:21;;;;;;;17.52;10.65;;;;;;;15.22;100.00;96025.13;5035585;28;20098;-76
2022/07/10 06:37:46;;;;;;;16.05;9.75;;;;;;;15.06;100.00;96027.19;5049176;28;20045;-80
2022/07/10 06:40:16;;;;;;;15.05;10.90;;;;;;;15.29;100.00;96020.25;5029916;28;20065;-77
2022/07/10 06:42:42;;;;;;;18.73;10.25;;;;;;;15.44;100.00;96015.81;5043371;28;20052;-77
2022/07/10 06:45:08;;;;;;;16.10;11.10;;;;;;;15.33;100.00;96021.25;5051115;28;20043;-76
2022/07/10 06:50:18;;;;;;;15.35;9.95;;;;;;;15.57;100.00;96015.06;5043717;28;20115;-77
2022/07/10 06:52:44;;;;;;;14.18;9.93;;;;;;;15.70;100.00;96013.56;5044112;28;20534;-76
2022/07/10 06:55:09;;;;;;;16.00;11.02;;;;;;;15.54;100.00;96020.97;5050662;28;20044;-76
2022/07/10 06:57:35;;;;;;;13.85;9.70;;;;;;;15.49;100.00;96023.69;5031927;28;20041;-76
2022/07/10 07:00:01;;;;;;;16.63;10.85;;;;;;;15.57;100.00;96017.72;5047741;28;20119;-75
2022/07/10 07:02:27;;;;;;;15.93;10.40;;;;;;;15.60;100.00;96014.50;5050833;28;20423;-77
2022/07/10 07:04:52;;;;;;;14.90;10.88;;;;;;;15.60;100.00;96014.50;5051866;28;20045;-78
2022/07/10 07:07:18;;;;;;;14.43;10.45;;;;;;;15.55;100.00;96022.53;5052018;28;20610;-77
2022/07/10 07:09:44;;;;;;;16.20;10.77;;;;;;;15.51;100.00;96032.16;5031412;28;20048;-77
2022/07/10 07:12:10;;;;;;;15.88;10.95;;;;;;;15.39;100.00;96025.41;5050311;28;20037;-77
2022/07/10 07:14:35;;;;;;;15.23;10.80;;;;;;;15.36;100.00;96026.00;5051247;28;20045;-76
2022/07/10 07:17:06;;;;;;;17.30;11.63;;;;;;;15.65;100.00;96022.38;5049836;28;20056;-76
2022/07/10 07:23:09;;;;;;;14.35;9.95;;;;;;;15.63;100.00;96018.44;5048418;28;20271;-81
2022/07/10 07:25:08;;;;;;;16.45;10.75;;;;;;;15.91;100.00;96035.28;5051610;28;20037;-76
2022/07/10 07:27:35;;;;;;;16.02;10.50;;;;;;;16.01;100.00;96029.81;5050839;28;20491;-76
2022/07/10 07:30:12;;;;;;;17.95;10.65;;;;;;;15.76;100.00;96033.66;5038968;28;20446;-77
2022/07/10 07:32:38;;;;;;;16.80;10.82;;;;;;;15.66;100.00;96039.09;5049389;28;20040;-77
2022/07/10 07:35:05;;;;;;;17.48;10.52;;;;;;;15.72;100.00;96041.38;5050831;28;20051;-76
2022/07/10 07:37:38;;;;;;;17.63;10.05;;;;;;;15.66;100.00;96042.53;5050153;28;20115;-77
2022/07/10 07:40:09;;;;;;;13.52;9.52;;;;;;;15.67;100.00;96051.28;5050722;28;20366;-77
2022/07/10 07:42:36;;;;;;;14.77;9.60;;;;;;;15.66;100.00;96045.19;5051836;28;20045;-76
2022/07/10 07:45:01;;;;;;;14.55;9.75;;;;;;;15.81;100.00;96056.69;5032118;28;20040;-76
2022/07/10 07:47:27;;;;;;;15.07;10.02;;;;;;;15.50;100.00;96051.78;5044010;28;20072;-77
2022/07/10 07:49:53;;;;;;;15.20;9.85;;;;;;;15.59;100.00;96053.50;5041783;28;20510;-76
2022/07/10 07:52:18;;;;;;;15.25;8.93;;;;;;;15.66;100.00;96061.13;5028635;28;20033;-75
2022/07/10 07:54:45;;;;;;;14.05;9.10;;;;;;;15.54;100.00;96052.78;5049011;28;20116;-74
2022/07/10 07:57:10;;;;;;;16.05;9.13;;;;;;;15.57;100.00;96057.50;5029307;28;20040;-77
2022/07/10 07:59:36;;;;;;;14.40;8.85;;;;;;;15.74;100.00;96052.47;5043023;28;20041;-76
2022/07/10 08:02:01;;;;;;;17.38;8.95;;;;;;;15.75;100.00;96054.06;5032837;28;20045;-78
2022/07/10 08:04:27;;;;;;;12.07;8.73;;;;;;;15.92;100.00;96060.75;5030313;28;20042;-77
2022/07/10 08:06:53;;;;;;;12.98;8.25;;;;;;;16.13;100.00;96053.22;5051543;28;20037;-77
2022/07/10 08:09:19;;;;;;;14.45;8.32;;;;;;;16.39;100.00;96053.59;5052190;28;20045;-78
2022/07/10 08:11:46;;;;;;;12.65;8.07;;;;;;;16.28;100.00;96054.84;5048834;28;20052;-77
2022/07/10 08:14:11;;;;;;;14.65;7.88;;;;;;;16.28;100.00;96054.84;5049457;28;20416;-76
2022/07/10 08:16:37;;;;;;;12.60;7.53;;;;;;;16.37;100.00;96063.72;5035209;28;20502;-77
2022/07/10 08:19:02;;;;;;;11.43;7.68;;;;;;;16.31;100.00;96056.91;5048341;28;20040;-77
2022/07/10 08:21:28;;;;;;;12.35;7.22;;;;;;;16.45;100.00;96052.41;5051500;28;20073;-78
2022/07/10 08:23:54;;;;;;;8.98;6.53;;;;;;;16.84;100.00;96054.88;5027862;28;20140;-77
2022/07/10 08:26:19;;;;;;;10.27;7.05;;;;;;;16.68;97.94;96049.88;5051649;28;20044;-76
2022/07/10 08:28:45;;;;;;;10.93;6.53;;;;;;;16.50;97.22;96045.44;5054637;28;20041;-76
2022/07/10 08:31:11;;;;;;;9.57;5.13;;;;;;;16.70;96.93;96055.69;5053473;28;20045;-76
2022/07/10 08:33:36;;;;;;;8.10;5.38;;;;;;;16.53;94.97;96039.53;5052727;28;20074;-76
2022/07/10 08:36:03;;;;;;;10.18;6.30;;;;;;;16.60;97.45;96039.94;5053439;28;20041;-77
2022/07/10 08:38:29;;;;;;;11.57;5.90;;;;;;;16.77;96.64;96028.72;5047563;28;20263;-76
2022/07/10 08:40:58;;;;;;;8.52;5.47;;;;;;;16.73;93.40;96039.13;5022757;28;20049;-77
2022/07/10 08:43:24;;;;;;;9.40;5.30;;;;;;;16.72;93.05;96026.16;5053848;28;20095;-77
2022/07/10 08:45:51;;;;;;;9.63;5.15;;;;;;;16.94;95.37;96034.25;5054181;28;20059;-76
2022/07/10 08:48:21;;;;;;;8.27;4.90;;;;;;;17.01;89.38;96035.72;5054778;28;20037;-76
2022/07/10 08:50:51;;;;;;;8.00;4.68;;;;;;;17.13;88.60;96031.44;5036596;28;20121;-76
2022/07/10 08:53:32;;;;;;;6.55;3.90;;;;;;;17.12;85.48;96029.91;5055132;28;20041;-77
2022/07/10 08:55:59;;;;;;;8.30;4.25;;;;;;;17.10;86.11;96018.75;5055855;28;20080;-76
2022/07/10 08:58:26;;;;;;;8.90;4.15;;;;;;;16.89;86.96;96041.53;5055082;28;20037;-76
2022/07/10 09:00:52;;;;;;;8.63;4.30;;;;;;;16.77;88.52;96040.13;5046548;28;20497;-77
2022/07/10 09:03:19;;;;;;;7.40;4.43;;;;;;;16.70;88.70;96045.03;5055428;28;20044;-77
2022/07/10 09:05:45;;;;;;;8.48;4.38;;;;;;;17.05;90.71;96047.31;5054621;28;20098;-77
2022/07/10 09:08:24;;;;;;;6.82;3.72;;;;;;;17.08;86.62;96034.25;5043470;28;20029;-77
2022/07/10 09:10:50;;;;;;;10.35;3.88;;;;;;;17.39;86.56;96033.56;5044308;28;20048;-77
2022/07/10 09:13:16;;;;;;;5.75;4.00;;;;;;;17.53;81.08;96032.72;5032924;28;20041;-77
2022/07/10 09:15:48;;;;;;;10.07;3.92;;;;;;;17.02;83.39;96019.47;5037036;28;20053;-77
2022/07/10 09:18:19;;;;;;;7.47;3.88;;;;;;;16.94;82.53;96041.44;5055443;28;20045;-76
2022/07/10 09:20:46;;;;;;;6.32;3.33;;;;;;;16.96;79.96;96033.94;5048860;28;20040;-77
2022/07/10 09:23:20;;;;;;;9.38;3.92;;;;;;;16.88;79.94;96040.75;5037253;28;20051;-77
2022/07/10 09:25:50;;;;;;;9.45;3.83;;;;;;;16.82;81.78;96030.47;5054632;28;20048;-77
2022/07/10 09:28:26;;;;;;;9.30;3.70;;;;;;;16.90;81.14;96027.16;5055159;28;20040;-77
2022/07/10 09:30:51;;;;;;;6.20;3.60;;;;;;;16.95;80.58;96027.84;5035898;28;20122;-77
2022/07/10 09:33:29;;;;;;;5.90;3.60;;;;;;;17.33;80.89;96026.78;5054190;28;20044;-76
2022/07/10 09:36:09;;;;;;;6.40;3.40;;;;;;;17.35;80.22;96032.59;5054346;28;20060;-77
2022/07/10 09:38:43;;;;;;;7.78;3.38;;;;;;;17.44;76.64;96036.13;5046782;28;20120;-77
2022/07/10 09:41:16;;;;;;;10.52;3.55;;;;;;;17.37;77.83;96030.44;5032400;28;20041;-76
2022/07/10 09:43:47;;;;;;;7.63;3.10;;;;;;;17.64;78.75;96039.41;5035874;28;20060;-76
2022/07/10 09:46:13;;;;;;;6.35;3.20;;;;;;;17.65;77.57;96040.97;5035502;28;20102;-76
2022/07/10 09:48:39;;;;;;;10.95;3.20;;;;;;;17.53;74.37;96035.38;5047354;28;20056;-77
2022/07/10 09:51:09;;;;;;;8.45;3.10;;;;;;;17.25;71.15;96038.13;5048001;28;20041;-76
2022/07/10 09:53:43;;;;;;;6.10;3.17;;;;;;;17.29;73.07;96036.44;5052622;28;20048;-76
2022/07/10 09:56:11;;;;;;;5.13;2.93;;;;;;;17.48;72.75;96026.47;5052818;28;20071;-77
2022/07/10 09:58:38;;;;;;;4.53;2.67;;;;;;;17.70;72.64;96016.91;5050207;28;20294;-76
2022/07/10 10:01:08;;;;;;;6.13;3.40;;;;;;;18.14;71.93;96020.66;5053053;28;20112;-77
2022/07/10 10:03:38;;;;;;;6.32;3.00;;;;;;;18.43;68.77;96013.25;5052208;28;20068;-76
2022/07/10 10:06:11;;;;;;;4.38;2.67;;;;;;;18.32;67.01;96026.09;5048200;28;20044;-76
2022/07/10 10:09:07;;;;;;;5.25;3.03;;;;;;;18.11;66.97;96021.25;5051523;28;20040;-76
2022/07/10 10:11:36;;;;;;;4.68;3.10;;;;;;;18.10;66.80;96025.03;5037806;28;20056;-77
2022/07/10 10:14:02;;;;;;;6.32;2.90;;;;;;;18.05;67.00;96022.50;5053058;28;20041;-78
2022/07/10 10:16:29;;;;;;;4.53;2.90;;;;;;;18.29;68.13;96026.69;5053191;28;20431;-77
2022/07/10 10:21:40;;;;;;;6.32;2.83;;;;;;;18.83;65.65;96023.91;5047509;28;20045;-77
2022/07/10 10:24:06;;;;;;;5.28;2.95;;;;;;;19.15;65.83;96014.75;5052702;28;20048;-78
2022/07/10 10:26:32;;;;;;;10.30;2.92;;;;;;;19.00;65.71;96012.53;5051301;28;20045;-77
2022/07/10 10:29:00;;;;;;;5.13;2.60;;;;;;;19.51;62.40;96015.56;5049148;28;20124;-77
2022/07/10 10:31:28;;;;;;;4.88;2.75;;;;;;;19.47;62.09;96010.06;5034937;28;20040;-77
2022/07/10 10:33:57;;;;;;;3.78;2.47;;;;;;;19.93;61.44;96009.75;5051909;28;20048;-77
2022/07/10 10:36:44;;;;;;;4.50;2.45;;;;;;;19.70;60.34;95999.25;5052802;28;20048;-78
2022/07/10 10:39:18;;;;;;;4.38;2.70;;;;;;;19.55;59.18;96006.63;5030117;28;20519;-77
2022/07/10 10:41:48;;;;;;;5.15;2.40;;;;;;;19.24;60.33;96006.78;5042543;28;20113;-77
2022/07/10 10:44:16;;;;;;;5.35;2.50;;;;;;;19.77;61.19;96010.22;5033860;28;20438;-77
2022/07/10 10:46:50;;;;;;;4.00;2.50;;;;;;;19.64;58.14;95997.81;5033950;28;20593;-77
2022/07/10 10:49:24;;;;;;;4.80;2.40;;;;;;;20.02;58.36;95994.50;5028812;28;20115;-77
2022/07/10 10:52:03;;;;;;;4.57;2.22;;;;;;;19.78;59.25;95998.41;5021909;28;20487;-77
2022/07/10 10:54:50;;;;;;;7.43;2.40;;;;;;;19.48;58.76;96003.66;5052059;28;20037;-77
2022/07/10 10:57:17;;;;;;;5.60;2.60;;;;;;;20.43;56.55;95995.78;5034539;28;20133;-78
2022/07/10 10:59:49;;;;;;;6.75;2.30;;;;;;;21.12;56.24;95993.88;5048816;28;20048;-77
2022/07/10 11:02:22;;;;;;;9.18;2.53;;;;;;;21.51;53.38;95991.06;5034451;28;20091;-77
2022/07/10 11:04:49;;;;;;;3.17;2.10;;;;;;;22.11;51.42;95983.56;5051433;28;20056;-78
2022/07/10 11:07:53;;;;;;;5.10;2.10;;;;;;;22.30;49.17;95985.75;5046899;28;20643;-77
2022/07/10 11:10:39;;;;;;;5.83;2.50;;;;;;;21.42;53.31;95991.13;5029425;28;20045;-77
2022/07/10 11:13:07;;;;;;;6.90;2.40;;;;;;;20.66;56.04;95998.19;5044964;28;20325;-77
2022/07/10 11:15:38;;;;;;;4.70;2.20;;;;;;;20.39;53.02;95989.50;5033932;28;20068;-77
2022/07/10 11:18:15;;;;;;;5.80;2.40;;;;;;;20.02;56.57;95986.47;5053379;28;20045;-79
2022/07/10 11:20:44;;;;;;;5.72;2.67;;;;;;;20.31;55.59;96003.69;5048218;28;20048;-78
2022/07/10 11:23:44;;;;;;;4.40;2.28;;;;;;;19.87;55.77;95993.91;5051940;28;20055;-77
2022/07/10 11:26:16;;;;;;;4.57;2.47;;;;;;;20.22;56.40;95996.47;5048814;28;20069;-77
2022/07/10 11:28:57;;;;;;;4.93;2.50;;;;;;;20.47;53.47;95994.00;5026663;28;20040;-77
2022/07/10 11:31:26;;;;;;;4.10;2.50;;;;;;;20.36;56.08;95992.81;5039086;28;20092;-78
2022/07/10 11:33:53;;;;;;;6.03;2.10;;;;;;;20.34;56.16;95998.50;5052326;28;20072;-78